Time;durP1;ratioP1;P1;durP2;ratioP2;P2;SDS_P1;SDS_P2;PMS_P1;PMS_P2;Temp;Humidity;BMP_temperature;BMP_pressure;BME280_temperature;BME280_humidity;BME280_pressure;Samples;Min_cycle;Max_cycle;Signal;HPM_P1;HPM_P2
2022/12/11 00:07:46;;;;;;;7.70;5.68;;;;;;;;;;6182509;23;20029;-92
2022/12/11 10:33:00;;;;;;;10.60;3.33;;;;;;;;;;6084791;23;20016;-93
2022/12/11 10:35:58;;;;;;;9.32;3.90;;;;;;;;;;6103986;23;20433;-92
2022/12/11 10:39:47;;;;;;;8.95;3.80;;;;;;;;;;6102317;23;20067;-92
2022/12/11 11:09:14;;;;;;;;;;;;;;;;;;;;;
2022/12/11 11:13:01;;;;;;;7.80;3.85;;;;;;;;;;6114446;23;20017;-94
2022/12/11 11:16:34;;;;;;;6.18;4.00;;;;;;;;;;6093686;23;20029;-92
2022/12/11 13:02:57;;;;;;;13.80;7.05;;;;;;;;;;6090626;23;20041;-90
2022/12/11 13:06:18;;;;;;;13.52;6.80;;;;;;;;;;6081686;23;20033;-90
2022/12/11 13:09:29;;;;;;;11.50;5.95;;;;;;;;;;6065771;23;20044;-91
2022/12/11 20:17:04;;;;;;;9.30;6.63;;;;;;;;;;6178678;23;20088;-91
2022/12/11 20:20:12;;;;;;;10.32;6.82;;;;;;;;;;6096673;23;20013;-89
2022/12/11 20:27:08;;;;;;;8.57;5.57;;;;;;;;;;6126799;23;20032;-92
2022/12/11 20:31:06;;;;;;;8.82;5.97;;;;;;;;;;6135365;23;20018;-91
2022/12/11 20:38:02;;;;;;;20.50;13.98;;;;;;;;;;6152595;23;20056;-92
2022/12/11 20:47:41;;;;;;;48.83;31.00;;;;;;;;;;6133470;23;20315;-90
2022/12/11 20:50:27;;;;;;;51.85;33.13;;;;;;;;;;6129268;23;20044;-90
2022/12/11 20:53:47;;;;;;;55.53;33.72;;;;;;;;;;6136676;23;20405;-93
2022/12/11 21:00:48;;;;;;;44.17;29.48;;;;;;;;;;6113698;23;20237;-92
2022/12/11 21:03:41;;;;;;;44.28;28.95;;;;;;;;;;6008995;23;20071;-91
2022/12/11 21:10:48;;;;;;;46.20;28.80;;;;;;;;;;5851971;24;20093;-92
2022/12/11 21:14:07;;;;;;;40.25;26.48;;;;;;;;;;5959282;23;20153;-93
2022/12/11 21:17:42;;;;;;;38.30;25.20;;;;;;;;;;6009359;23;20019;-92
2022/12/11 21:20:27;;;;;;;42.72;27.00;;;;;;;;;;6009332;23;20004;-92
2022/12/11 21:23:36;;;;;;;37.72;24.20;;;;;;;;;;5978424;23;20098;-92
2022/12/11 21:26:45;;;;;;;36.47;23.95;;;;;;;;;;5973283;23;20076;-92
2022/12/11 21:29:57;;;;;;;38.40;24.85;;;;;;;;;;5969990;23;20026;-92
2022/12/11 21:32:42;;;;;;;35.92;23.90;;;;;;;;;;5945334;23;20034;-91
2022/12/11 21:36:10;;;;;;;35.35;22.33;;;;;;;;;;6001175;23;20103;-92
2022/12/11 21:38:55;;;;;;;32.80;22.33;;;;;;;;;;5985204;23;20080;-92
2022/12/11 21:42:06;;;;;;;33.53;22.38;;;;;;;;;;5977374;23;20154;-91
2022/12/11 21:45:26;;;;;;;29.88;21.45;;;;;;;;;;5950568;23;20008;-92
2022/12/11 21:48:41;;;;;;;34.28;21.85;;;;;;;;;;5962777;23;20043;-89
2022/12/11 21:52:00;;;;;;;34.05;20.90;;;;;;;;;;6000673;23;20042;-89
2022/12/11 21:55:27;;;;;;;30.25;19.75;;;;;;;;;;6036627;23;20021;-90
2022/12/11 21:58:33;;;;;;;28.70;19.73;;;;;;;;;;6014018;23;20007;-92
2022/12/11 22:02:00;;;;;;;26.63;18.42;;;;;;;;;;6065381;23;20015;-91
2022/12/11 22:05:22;;;;;;;26.52;19.23;;;;;;;;;;6065848;23;20019;-92
2022/12/11 22:08:35;;;;;;;28.85;19.70;;;;;;;;;;6020009;23;20022;-93
2022/12/11 22:11:25;;;;;;;25.00;18.50;;;;;;;;;;6018139;23;20018;-89
2022/12/11 22:14:06;;;;;;;25.67;18.10;;;;;;;;;;6136262;23;20397;-92
2022/12/11 22:16:46;;;;;;;26.35;17.17;;;;;;;;;;6112093;23;20109;-91
2022/12/11 22:20:04;;;;;;;24.73;16.73;;;;;;;;;;6134993;23;20310;-93
2022/12/11 22:27:25;;;;;;;23.90;16.15;;;;;;;;;;6185376;23;20094;-92
2022/12/11 22:34:29;;;;;;;20.90;15.20;;;;;;;;;;6063304;23;20032;-90
